Terminal Aerodrome Forecast
Issued by NWS

Home | Current Version | Previous Version | Text Only | Print | Product List | Glossary On
Versions: 1 2 3 4 5 6 7 8 9 10 11 12 13 14 15
513
FTUS41 KPBZ 081723
TAFBVI
TAF
KBVI 081723Z 0818/0918 14008KT P6SM -RA OVC035
     FM082000 22005KT 3SM -RASN SCT006 OVC015
      TEMPO 0820/0823 BKN006
     FM082300 25005KT P6SM OVC015
     FM090800 29005KT 5SM -SHSN OVC010
     FM091500 30008KT P6SM BKN020=

USA.gov is the U.S. government's official web portal to all federal, state and local government web resources and services.